Archival Weather

Vermilion Rgnl

Danville, Illinois (KDNV)

Report from: Tuesday, March 26, 2024 1:55 AM CDT
Current time: Sunday, July 14, 2024 4:55 AM CDT

Current weather – Weather history – Daily summaries
Weather forecast

Temperature10.0°C (50.0°F)
Wind chill6.4°C (43.5°F)
Dew point8.6°C (47.5°F)
Winds 18 kts (9.3 m/s, 20.7 mph) South-Southeast (150°)
Wind gusts 23 kts (11.8 m/s, 26.5 mph)
Visibility10 mi. (16.1 km)
Clouds Ceiling: Overcast 1,000 ft. (305 m)
Altimeter29.55 in.Hg (1001 mB)
Relative humidity91 %
Density altitude-10 ft. (-3 m)
Remarks Fully automated report
Automated weather observing station with precipitation discriminator
Flight conditions Marginal Visual Meteorological Conditions
Raw dataKDNV 260655Z AUTO 15018G23KT 10SM OVC010 10/09 A2955 RMK AO2 T01000086
An error has occurred. This application may no longer respond until reloaded. Reload 🗙